sensor_id;sensor_type;location;lat;lon;timestamp;P1;durP1;ratioP1;P2;durP2;ratioP2
7013;SDS011;3547;50.774;12.918;2022-10-16T00:02:06;1.55;;;0.50;;
7013;SDS011;3547;50.774;12.918;2022-10-16T00:20:26;0.40;;;0.40;;
7013;SDS011;3547;50.774;12.918;2022-10-16T00:47:37;0.40;;;0.40;;
7013;SDS011;3547;50.774;12.918;2022-10-16T00:50:26;0.40;;;0.40;;
7013;SDS011;3547;50.774;12.918;2022-10-16T01:04:20;2.28;;;0.43;;
7013;SDS011;3547;50.774;12.918;2022-10-16T01:46:21;0.30;;;0.30;;
7013;SDS011;3547;50.774;12.918;2022-10-16T01:48:49;0.75;;;0.40;;
7013;SDS011;3547;50.774;12.918;2022-10-16T01:51:19;0.32;;;0.30;;
7013;SDS011;3547;50.774;12.918;2022-10-16T01:53:54;0.60;;;0.40;;
7013;SDS011;3547;50.774;12.918;2022-10-16T01:56:35;0.50;;;0.50;;
7013;SDS011;3547;50.774;12.918;2022-10-16T02:02:24;0.43;;;0.43;;
7013;SDS011;3547;50.774;12.918;2022-10-16T03:36:25;0.60;;;0.60;;
7013;SDS011;3547;50.774;12.918;2022-10-16T03:38:58;1.38;;;0.55;;
7013;SDS011;3547;50.774;12.918;2022-10-16T05:04:41;0.30;;;0.30;;
7013;SDS011;3547;50.774;12.918;2022-10-16T05:18:22;1.80;;;0.40;;
7013;SDS011;3547;50.774;12.918;2022-10-16T05:31:42;0.40;;;0.40;;
7013;SDS011;3547;50.774;12.918;2022-10-16T05:34:15;0.35;;;0.35;;
7013;SDS011;3547;50.774;12.918;2022-10-16T05:36:47;0.90;;;0.50;;
7013;SDS011;3547;50.774;12.918;2022-10-16T05:39:17;0.55;;;0.30;;
7013;SDS011;3547;50.774;12.918;2022-10-16T05:41:44;0.40;;;0.40;;
7013;SDS011;3547;50.774;12.918;2022-10-16T05:44:13;0.30;;;0.30;;
7013;SDS011;3547;50.774;12.918;2022-10-16T05:46:48;0.55;;;0.50;;
7013;SDS011;3547;50.774;12.918;2022-10-16T05:51:51;0.52;;;0.52;;
7013;SDS011;3547;50.774;12.918;2022-10-16T05:54:21;3.10;;;1.20;;
7013;SDS011;3547;50.774;12.918;2022-10-16T05:59:25;1.08;;;0.40;;
7013;SDS011;3547;50.774;12.918;2022-10-16T06:02:01;0.20;;;0.20;;
7013;SDS011;3547;50.774;12.918;2022-10-16T06:04:34;0.25;;;0.25;;
7013;SDS011;3547;50.774;12.918;2022-10-16T06:07:04;0.52;;;0.47;;
7013;SDS011;3547;50.774;12.918;2022-10-16T06:09:42;0.80;;;0.60;;
7013;SDS011;3547;50.774;12.918;2022-10-16T06:51:28;4.75;;;4.35;;
7013;SDS011;3547;50.774;12.918;2022-10-16T06:54:01;5.30;;;4.80;;
7013;SDS011;3547;50.774;12.918;2022-10-16T06:56:30;3.45;;;2.72;;
7013;SDS011;3547;50.774;12.918;2022-10-16T06:59:03;4.15;;;2.00;;
7013;SDS011;3547;50.774;12.918;2022-10-16T07:01:32;2.05;;;1.60;;
7013;SDS011;3547;50.774;12.918;2022-10-16T07:04:05;3.10;;;2.70;;
7013;SDS011;3547;50.774;12.918;2022-10-16T07:06:37;3.13;;;2.83;;
7013;SDS011;3547;50.774;12.918;2022-10-16T07:12:47;2.42;;;2.13;;
7013;SDS011;3547;50.774;12.918;2022-10-16T07:15:25;3.28;;;2.10;;
7013;SDS011;3547;50.774;12.918;2022-10-16T07:56:05;0.77;;;0.77;;
7013;SDS011;3547;50.774;12.918;2022-10-16T08:08:13;1.20;;;1.10;;
7013;SDS011;3547;50.774;12.918;2022-10-16T08:10:49;0.80;;;0.60;;
7013;SDS011;3547;50.774;12.918;2022-10-16T08:13:35;1.17;;;0.90;;
7013;SDS011;3547;50.774;12.918;2022-10-16T08:16:05;0.88;;;0.70;;
7013;SDS011;3547;50.774;12.918;2022-10-16T08:22:36;1.88;;;0.90;;
7013;SDS011;3547;50.774;12.918;2022-10-16T08:28:57;4.82;;;0.73;;
7013;SDS011;3547;50.774;12.918;2022-10-16T08:31:26;1.98;;;0.60;;
7013;SDS011;3547;50.774;12.918;2022-10-16T08:33:53;0.80;;;0.80;;
7013;SDS011;3547;50.774;12.918;2022-10-16T08:36:23;0.47;;;0.47;;
7013;SDS011;3547;50.774;12.918;2022-10-16T08:39:03;0.88;;;0.88;;
7013;SDS011;3547;50.774;12.918;2022-10-16T08:56:22;0.57;;;0.52;;
7013;SDS011;3547;50.774;12.918;2022-10-16T08:59:29;3.85;;;1.10;;
7013;SDS011;3547;50.774;12.918;2022-10-16T09:02:01;2.50;;;0.80;;
7013;SDS011;3547;50.774;12.918;2022-10-16T09:05:00;0.75;;;0.75;;
7013;SDS011;3547;50.774;12.918;2022-10-16T09:11:01;0.80;;;0.80;;
7013;SDS011;3547;50.774;12.918;2022-10-16T09:13:50;0.68;;;0.68;;
7013;SDS011;3547;50.774;12.918;2022-10-16T09:16:22;0.82;;;0.82;;
7013;SDS011;3547;50.774;12.918;2022-10-16T09:21:51;3.70;;;0.73;;
7013;SDS011;3547;50.774;12.918;2022-10-16T09:24:33;0.70;;;0.70;;
7013;SDS011;3547;50.774;12.918;2022-10-16T09:27:00;0.95;;;0.80;;
7013;SDS011;3547;50.774;12.918;2022-10-16T09:29:28;0.63;;;0.63;;
7013;SDS011;3547;50.774;12.918;2022-10-16T09:32:07;0.68;;;0.68;;
7013;SDS011;3547;50.774;12.918;2022-10-16T09:35:01;0.77;;;0.68;;
7013;SDS011;3547;50.774;12.918;2022-10-16T09:38:34;0.80;;;0.80;;
7013;SDS011;3547;50.774;12.918;2022-10-16T09:46:37;0.93;;;0.90;;
7013;SDS011;3547;50.774;12.918;2022-10-16T09:52:14;1.40;;;0.90;;
7013;SDS011;3547;50.774;12.918;2022-10-16T10:03:12;0.80;;;0.80;;
7013;SDS011;3547;50.774;12.918;2022-10-16T10:06:27;0.75;;;0.75;;
7013;SDS011;3547;50.774;12.918;2022-10-16T10:18:14;0.82;;;0.68;;
7013;SDS011;3547;50.774;12.918;2022-10-16T10:20:58;0.70;;;0.70;;
7013;SDS011;3547;50.774;12.918;2022-10-16T10:23:27;0.70;;;0.70;;
7013;SDS011;3547;50.774;12.918;2022-10-16T10:26:10;0.82;;;0.80;;
7013;SDS011;3547;50.774;12.918;2022-10-16T10:31:25;0.60;;;0.60;;
7013;SDS011;3547;50.774;12.918;2022-10-16T10:37:03;0.90;;;0.80;;
7013;SDS011;3547;50.774;12.918;2022-10-16T10:39:56;1.63;;;0.88;;
7013;SDS011;3547;50.774;12.918;2022-10-16T10:42:34;0.90;;;0.80;;
7013;SDS011;3547;50.774;12.918;2022-10-16T10:45:17;0.77;;;0.77;;
7013;SDS011;3547;50.774;12.918;2022-10-16T10:50:23;0.73;;;0.70;;
7013;SDS011;3547;50.774;12.918;2022-10-16T10:58:34;0.90;;;0.90;;
7013;SDS011;3547;50.774;12.918;2022-10-16T11:01:14;0.60;;;0.60;;
7013;SDS011;3547;50.774;12.918;2022-10-16T11:06:50;0.85;;;0.85;;
7013;SDS011;3547;50.774;12.918;2022-10-16T11:09:23;2.05;;;0.77;;
7013;SDS011;3547;50.774;12.918;2022-10-16T11:14:38;0.52;;;0.52;;
7013;SDS011;3547;50.774;12.918;2022-10-16T11:17:10;0.47;;;0.47;;
7013;SDS011;3547;50.774;12.918;2022-10-16T11:20:33;0.55;;;0.55;;
7013;SDS011;3547;50.774;12.918;2022-10-16T11:25:36;1.05;;;0.90;;
7013;SDS011;3547;50.774;12.918;2022-10-16T11:30:49;2.97;;;1.00;;
7013;SDS011;3547;50.774;12.918;2022-10-16T11:36:04;1.95;;;0.70;;
7013;SDS011;3547;50.774;12.918;2022-10-16T11:38:43;0.70;;;0.70;;
7013;SDS011;3547;50.774;12.918;2022-10-16T11:46:45;0.65;;;0.65;;
7013;SDS011;3547;50.774;12.918;2022-10-16T11:49:18;0.77;;;0.77;;
7013;SDS011;3547;50.774;12.918;2022-10-16T11:51:59;0.70;;;0.70;;
7013;SDS011;3547;50.774;12.918;2022-10-16T11:57:12;1.00;;;0.60;;
7013;SDS011;3547;50.774;12.918;2022-10-16T11:59:51;0.70;;;0.70;;
7013;SDS011;3547;50.774;12.918;2022-10-16T12:02:43;0.60;;;0.60;;
7013;SDS011;3547;50.774;12.918;2022-10-16T12:05:37;0.70;;;0.70;;
7013;SDS011;3547;50.774;12.918;2022-10-16T12:08:20;0.90;;;0.60;;
7013;SDS011;3547;50.774;12.918;2022-10-16T12:10:47;0.60;;;0.60;;
7013;SDS011;3547;50.774;12.918;2022-10-16T12:13:33;0.60;;;0.60;;
7013;SDS011;3547;50.774;12.918;2022-10-16T12:18:38;0.52;;;0.52;;
7013;SDS011;3547;50.774;12.918;2022-10-16T12:21:12;1.88;;;0.82;;
7013;SDS011;3547;50.774;12.918;2022-10-16T12:23:55;1.88;;;0.40;;
7013;SDS011;3547;50.774;12.918;2022-10-16T12:26:27;0.55;;;0.50;;
7013;SDS011;3547;50.774;12.918;2022-10-16T12:29:12;0.50;;;0.47;;
7013;SDS011;3547;50.774;12.918;2022-10-16T12:31:45;0.60;;;0.60;;
7013;SDS011;3547;50.774;12.918;2022-10-16T12:34:14;0.77;;;0.70;;
7013;SDS011;3547;50.774;12.918;2022-10-16T12:36:49;0.57;;;0.57;;
7013;SDS011;3547;50.774;12.918;2022-10-16T12:39:25;0.50;;;0.50;;
7013;SDS011;3547;50.774;12.918;2022-10-16T12:42:00;0.57;;;0.57;;
7013;SDS011;3547;50.774;12.918;2022-10-16T12:44:31;1.35;;;0.55;;
7013;SDS011;3547;50.774;12.918;2022-10-16T12:47:00;1.58;;;0.50;;
7013;SDS011;3547;50.774;12.918;2022-10-16T12:52:03;0.65;;;0.60;;
7013;SDS011;3547;50.774;12.918;2022-10-16T12:54:37;2.35;;;0.47;;
7013;SDS011;3547;50.774;12.918;2022-10-16T13:14:08;1.15;;;0.88;;
7013;SDS011;3547;50.774;12.918;2022-10-16T13:19:41;0.60;;;0.60;;
7013;SDS011;3547;50.774;12.918;2022-10-16T13:28:29;0.50;;;0.50;;
7013;SDS011;3547;50.774;12.918;2022-10-16T13:30:53;0.70;;;0.70;;
7013;SDS011;3547;50.774;12.918;2022-10-16T13:33:21;0.45;;;0.40;;
7013;SDS011;3547;50.774;12.918;2022-10-16T13:35:52;0.63;;;0.60;;
7013;SDS011;3547;50.774;12.918;2022-10-16T13:38:21;0.98;;;0.60;;
7013;SDS011;3547;50.774;12.918;2022-10-16T13:43:16;0.55;;;0.55;;
7013;SDS011;3547;50.774;12.918;2022-10-16T13:45:55;0.70;;;0.70;;
7013;SDS011;3547;50.774;12.918;2022-10-16T13:48:23;0.52;;;0.45;;
7013;SDS011;3547;50.774;12.918;2022-10-16T13:51:01;0.57;;;0.57;;
7013;SDS011;3547;50.774;12.918;2022-10-16T13:53:35;0.60;;;0.60;;
7013;SDS011;3547;50.774;12.918;2022-10-16T13:56:06;0.40;;;0.40;;
7013;SDS011;3547;50.774;12.918;2022-10-16T13:58:36;0.65;;;0.65;;
7013;SDS011;3547;50.774;12.918;2022-10-16T14:01:06;0.52;;;0.50;;
7013;SDS011;3547;50.774;12.918;2022-10-16T14:03:49;0.70;;;0.70;;
7013;SDS011;3547;50.774;12.918;2022-10-16T14:06:17;0.70;;;0.70;;
7013;SDS011;3547;50.774;12.918;2022-10-16T14:08:50;0.50;;;0.50;;
7013;SDS011;3547;50.774;12.918;2022-10-16T14:11:25;2.33;;;0.70;;
7013;SDS011;3547;50.774;12.918;2022-10-16T14:13:52;0.50;;;0.50;;
7013;SDS011;3547;50.774;12.918;2022-10-16T14:16:23;0.75;;;0.75;;
7013;SDS011;3547;50.774;12.918;2022-10-16T14:21:22;0.60;;;0.60;;
7013;SDS011;3547;50.774;12.918;2022-10-16T14:23:48;4.05;;;0.80;;
7013;SDS011;3547;50.774;12.918;2022-10-16T14:26:15;0.75;;;0.50;;
7013;SDS011;3547;50.774;12.918;2022-10-16T14:28:44;0.45;;;0.45;;
7013;SDS011;3547;50.774;12.918;2022-10-16T14:33:52;3.63;;;1.00;;
7013;SDS011;3547;50.774;12.918;2022-10-16T14:36:19;0.85;;;0.55;;
7013;SDS011;3547;50.774;12.918;2022-10-16T14:41:31;1.70;;;0.70;;
7013;SDS011;3547;50.774;12.918;2022-10-16T14:44:06;0.82;;;0.80;;
7013;SDS011;3547;50.774;12.918;2022-10-16T14:46:36;0.70;;;0.70;;
7013;SDS011;3547;50.774;12.918;2022-10-16T14:51:37;1.00;;;0.60;;
7013;SDS011;3547;50.774;12.918;2022-10-16T14:54:07;0.52;;;0.52;;
7013;SDS011;3547;50.774;12.918;2022-10-16T14:56:51;0.60;;;0.60;;
7013;SDS011;3547;50.774;12.918;2022-10-16T14:59:24;0.70;;;0.70;;
7013;SDS011;3547;50.774;12.918;2022-10-16T15:04:39;0.40;;;0.40;;
7013;SDS011;3547;50.774;12.918;2022-10-16T15:07:06;0.50;;;0.50;;
7013;SDS011;3547;50.774;12.918;2022-10-16T15:09:33;0.55;;;0.55;;
7013;SDS011;3547;50.774;12.918;2022-10-16T15:11:59;2.17;;;0.70;;
7013;SDS011;3547;50.774;12.918;2022-10-16T15:14:26;1.15;;;0.90;;
7013;SDS011;3547;50.774;12.918;2022-10-16T15:16:52;2.05;;;0.80;;
7013;SDS011;3547;50.774;12.918;2022-10-16T15:19:18;0.82;;;0.82;;
7013;SDS011;3547;50.774;12.918;2022-10-16T15:21:44;0.65;;;0.65;;
7013;SDS011;3547;50.774;12.918;2022-10-16T15:24:11;0.80;;;0.80;;
7013;SDS011;3547;50.774;12.918;2022-10-16T15:26:38;0.63;;;0.60;;
7013;SDS011;3547;50.774;12.918;2022-10-16T15:29:05;3.10;;;0.95;;
7013;SDS011;3547;50.774;12.918;2022-10-16T15:31:31;0.98;;;0.63;;
7013;SDS011;3547;50.774;12.918;2022-10-16T15:33:58;1.05;;;0.85;;
7013;SDS011;3547;50.774;12.918;2022-10-16T15:36:33;1.05;;;0.95;;
7013;SDS011;3547;50.774;12.918;2022-10-16T15:39:03;0.70;;;0.70;;
7013;SDS011;3547;50.774;12.918;2022-10-16T15:41:30;0.80;;;0.80;;
7013;SDS011;3547;50.774;12.918;2022-10-16T15:43:56;1.15;;;1.05;;
7013;SDS011;3547;50.774;12.918;2022-10-16T15:46:23;1.02;;;0.82;;
7013;SDS011;3547;50.774;12.918;2022-10-16T15:48:50;1.90;;;0.98;;
7013;SDS011;3547;50.774;12.918;2022-10-16T15:51:20;1.02;;;0.95;;
7013;SDS011;3547;50.774;12.918;2022-10-16T15:53:47;1.10;;;0.90;;
7013;SDS011;3547;50.774;12.918;2022-10-16T15:56:14;1.05;;;1.00;;
7013;SDS011;3547;50.774;12.918;2022-10-16T15:58:40;0.60;;;0.60;;
7013;SDS011;3547;50.774;12.918;2022-10-16T16:01:07;1.42;;;0.98;;
7013;SDS011;3547;50.774;12.918;2022-10-16T16:03:35;0.70;;;0.70;;
7013;SDS011;3547;50.774;12.918;2022-10-16T16:06:08;0.60;;;0.60;;
7013;SDS011;3547;50.774;12.918;2022-10-16T16:08:36;0.93;;;0.90;;
7013;SDS011;3547;50.774;12.918;2022-10-16T16:11:06;1.05;;;0.77;;
7013;SDS011;3547;50.774;12.918;2022-10-16T16:13:35;0.93;;;0.90;;
7013;SDS011;3547;50.774;12.918;2022-10-16T16:16:09;1.17;;;0.85;;
7013;SDS011;3547;50.774;12.918;2022-10-16T16:18:37;0.80;;;0.80;;
7013;SDS011;3547;50.774;12.918;2022-10-16T16:21:04;0.93;;;0.73;;
7013;SDS011;3547;50.774;12.918;2022-10-16T16:23:30;1.38;;;1.20;;
7013;SDS011;3547;50.774;12.918;2022-10-16T16:26:22;3.17;;;1.00;;
7013;SDS011;3547;50.774;12.918;2022-10-16T16:28:59;1.20;;;1.10;;
7013;SDS011;3547;50.774;12.918;2022-10-16T16:31:26;1.35;;;1.10;;
7013;SDS011;3547;50.774;12.918;2022-10-16T16:33:54;1.13;;;1.02;;
7013;SDS011;3547;50.774;12.918;2022-10-16T16:36:21;1.27;;;1.17;;
7013;SDS011;3547;50.774;12.918;2022-10-16T16:38:48;2.55;;;2.10;;
7013;SDS011;3547;50.774;12.918;2022-10-16T16:41:17;2.92;;;2.55;;
7013;SDS011;3547;50.774;12.918;2022-10-16T16:43:45;2.15;;;1.95;;
7013;SDS011;3547;50.774;12.918;2022-10-16T16:46:13;1.95;;;1.70;;
7013;SDS011;3547;50.774;12.918;2022-10-16T16:48:40;1.67;;;1.52;;
7013;SDS011;3547;50.774;12.918;2022-10-16T16:51:09;2.35;;;1.88;;
7013;SDS011;3547;50.774;12.918;2022-10-16T16:53:41;5.38;;;1.75;;
7013;SDS011;3547;50.774;12.918;2022-10-16T16:56:08;1.60;;;1.27;;
7013;SDS011;3547;50.774;12.918;2022-10-16T16:58:34;1.80;;;1.60;;
7013;SDS011;3547;50.774;12.918;2022-10-16T17:01:00;2.08;;;1.88;;
7013;SDS011;3547;50.774;12.918;2022-10-16T17:03:28;3.15;;;1.63;;
7013;SDS011;3547;50.774;12.918;2022-10-16T17:06:00;6.63;;;5.38;;
7013;SDS011;3547;50.774;12.918;2022-10-16T17:08:28;3.92;;;3.38;;
7013;SDS011;3547;50.774;12.918;2022-10-16T17:10:55;6.13;;;3.42;;
7013;SDS011;3547;50.774;12.918;2022-10-16T17:13:23;3.30;;;3.00;;
7013;SDS011;3547;50.774;12.918;2022-10-16T17:15:50;3.67;;;3.35;;
7013;SDS011;3547;50.774;12.918;2022-10-16T17:18:16;2.70;;;2.50;;
7013;SDS011;3547;50.774;12.918;2022-10-16T17:20:43;3.72;;;2.42;;
7013;SDS011;3547;50.774;12.918;2022-10-16T17:23:09;2.20;;;1.85;;
7013;SDS011;3547;50.774;12.918;2022-10-16T17:25:39;1.90;;;1.67;;
7013;SDS011;3547;50.774;12.918;2022-10-16T17:28:07;3.42;;;2.60;;
7013;SDS011;3547;50.774;12.918;2022-10-16T17:30:36;3.88;;;2.40;;
7013;SDS011;3547;50.774;12.918;2022-10-16T17:33:04;4.15;;;2.03;;
7013;SDS011;3547;50.774;12.918;2022-10-16T17:35:37;4.53;;;2.92;;
7013;SDS011;3547;50.774;12.918;2022-10-16T17:38:05;4.93;;;4.28;;
7013;SDS011;3547;50.774;12.918;2022-10-16T17:40:32;6.78;;;3.80;;
7013;SDS011;3547;50.774;12.918;2022-10-16T17:42:59;3.53;;;3.22;;
7013;SDS011;3547;50.774;12.918;2022-10-16T17:45:25;4.45;;;3.95;;
7013;SDS011;3547;50.774;12.918;2022-10-16T17:47:52;4.13;;;3.53;;
7013;SDS011;3547;50.774;12.918;2022-10-16T17:50:18;3.30;;;2.20;;
7013;SDS011;3547;50.774;12.918;2022-10-16T17:52:44;3.03;;;2.55;;
7013;SDS011;3547;50.774;12.918;2022-10-16T17:55:10;2.30;;;2.10;;
7013;SDS011;3547;50.774;12.918;2022-10-16T17:57:37;3.25;;;2.40;;
7013;SDS011;3547;50.774;12.918;2022-10-16T18:00:03;2.20;;;1.95;;
7013;SDS011;3547;50.774;12.918;2022-10-16T18:02:30;2.30;;;2.10;;
7013;SDS011;3547;50.774;12.918;2022-10-16T18:04:57;4.45;;;2.13;;
7013;SDS011;3547;50.774;12.918;2022-10-16T18:07:24;2.40;;;1.85;;
7013;SDS011;3547;50.774;12.918;2022-10-16T18:09:50;2.33;;;1.80;;
7013;SDS011;3547;50.774;12.918;2022-10-16T18:12:17;2.30;;;2.10;;
7013;SDS011;3547;50.774;12.918;2022-10-16T18:14:43;3.08;;;2.10;;
7013;SDS011;3547;50.774;12.918;2022-10-16T18:17:09;2.55;;;2.30;;
7013;SDS011;3547;50.774;12.918;2022-10-16T18:19:35;2.40;;;2.20;;
7013;SDS011;3547;50.774;12.918;2022-10-16T18:22:02;2.45;;;2.20;;
7013;SDS011;3547;50.774;12.918;2022-10-16T18:24:28;2.65;;;2.45;;
7013;SDS011;3547;50.774;12.918;2022-10-16T18:26:54;2.78;;;2.00;;
7013;SDS011;3547;50.774;12.918;2022-10-16T18:29:21;2.65;;;1.90;;
7013;SDS011;3547;50.774;12.918;2022-10-16T18:31:48;2.72;;;2.10;;
7013;SDS011;3547;50.774;12.918;2022-10-16T18:34:15;1.90;;;1.70;;
7013;SDS011;3547;50.774;12.918;2022-10-16T18:36:41;2.47;;;1.90;;
7013;SDS011;3547;50.774;12.918;2022-10-16T18:39:08;2.63;;;1.80;;
7013;SDS011;3547;50.774;12.918;2022-10-16T18:41:36;2.80;;;2.00;;
7013;SDS011;3547;50.774;12.918;2022-10-16T18:44:07;3.50;;;2.10;;
7013;SDS011;3547;50.774;12.918;2022-10-16T18:46:35;2.03;;;1.90;;
7013;SDS011;3547;50.774;12.918;2022-10-16T18:49:01;4.13;;;1.70;;
7013;SDS011;3547;50.774;12.918;2022-10-16T18:51:30;2.17;;;1.73;;
7013;SDS011;3547;50.774;12.918;2022-10-16T18:54:02;1.90;;;1.67;;
7013;SDS011;3547;50.774;12.918;2022-10-16T18:56:32;1.55;;;1.40;;
7013;SDS011;3547;50.774;12.918;2022-10-16T18:58:59;1.40;;;1.30;;
7013;SDS011;3547;50.774;12.918;2022-10-16T19:01:27;1.50;;;1.40;;
7013;SDS011;3547;50.774;12.918;2022-10-16T19:03:56;1.80;;;1.70;;
7013;SDS011;3547;50.774;12.918;2022-10-16T19:06:24;3.38;;;2.00;;
7013;SDS011;3547;50.774;12.918;2022-10-16T19:08:52;1.80;;;1.67;;
7013;SDS011;3547;50.774;12.918;2022-10-16T19:11:20;1.80;;;1.70;;
7013;SDS011;3547;50.774;12.918;2022-10-16T19:13:47;1.73;;;1.60;;
7013;SDS011;3547;50.774;12.918;2022-10-16T19:16:15;2.40;;;1.60;;
7013;SDS011;3547;50.774;12.918;2022-10-16T19:18:43;2.17;;;1.80;;
7013;SDS011;3547;50.774;12.918;2022-10-16T19:21:09;2.28;;;1.90;;
7013;SDS011;3547;50.774;12.918;2022-10-16T19:23:37;2.83;;;2.30;;
7013;SDS011;3547;50.774;12.918;2022-10-16T19:26:05;1.90;;;1.73;;
7013;SDS011;3547;50.774;12.918;2022-10-16T19:28:32;3.33;;;1.90;;
7013;SDS011;3547;50.774;12.918;2022-10-16T19:31:09;1.92;;;1.80;;
7013;SDS011;3547;50.774;12.918;2022-10-16T19:33:40;2.03;;;1.70;;
7013;SDS011;3547;50.774;12.918;2022-10-16T19:36:07;2.83;;;2.03;;
7013;SDS011;3547;50.774;12.918;2022-10-16T19:38:37;2.50;;;1.98;;
7013;SDS011;3547;50.774;12.918;2022-10-16T19:41:04;2.67;;;2.00;;
7013;SDS011;3547;50.774;12.918;2022-10-16T19:43:34;5.95;;;2.10;;
7013;SDS011;3547;50.774;12.918;2022-10-16T19:46:10;2.38;;;2.10;;
7013;SDS011;3547;50.774;12.918;2022-10-16T19:48:38;3.45;;;1.95;;
7013;SDS011;3547;50.774;12.918;2022-10-16T19:51:09;4.88;;;3.20;;
7013;SDS011;3547;50.774;12.918;2022-10-16T19:53:37;4.70;;;3.03;;
7013;SDS011;3547;50.774;12.918;2022-10-16T19:56:20;2.38;;;1.90;;
7013;SDS011;3547;50.774;12.918;2022-10-16T19:58:47;2.15;;;1.70;;
7013;SDS011;3547;50.774;12.918;2022-10-16T20:01:15;1.88;;;1.70;;
7013;SDS011;3547;50.774;12.918;2022-10-16T20:03:43;4.40;;;1.67;;
7013;SDS011;3547;50.774;12.918;2022-10-16T20:06:09;1.98;;;1.58;;
7013;SDS011;3547;50.774;12.918;2022-10-16T20:08:37;1.60;;;1.50;;
7013;SDS011;3547;50.774;12.918;2022-10-16T20:11:04;2.70;;;1.60;;
7013;SDS011;3547;50.774;12.918;2022-10-16T20:13:34;2.00;;;1.48;;
7013;SDS011;3547;50.774;12.918;2022-10-16T20:16:01;2.45;;;1.20;;
7013;SDS011;3547;50.774;12.918;2022-10-16T20:18:28;2.15;;;1.92;;
7013;SDS011;3547;50.774;12.918;2022-10-16T20:20:55;4.00;;;1.98;;
7013;SDS011;3547;50.774;12.918;2022-10-16T20:23:21;2.40;;;2.20;;
7013;SDS011;3547;50.774;12.918;2022-10-16T20:25:48;3.22;;;2.35;;
7013;SDS011;3547;50.774;12.918;2022-10-16T20:28:16;2.50;;;2.20;;
7013;SDS011;3547;50.774;12.918;2022-10-16T20:30:44;2.97;;;1.92;;
7013;SDS011;3547;50.774;12.918;2022-10-16T20:33:12;1.75;;;1.55;;
7013;SDS011;3547;50.774;12.918;2022-10-16T20:35:43;2.53;;;2.00;;
7013;SDS011;3547;50.774;12.918;2022-10-16T20:38:11;2.38;;;1.83;;
7013;SDS011;3547;50.774;12.918;2022-10-16T20:40:40;2.33;;;2.05;;
7013;SDS011;3547;50.774;12.918;2022-10-16T20:43:12;2.67;;;1.83;;
7013;SDS011;3547;50.774;12.918;2022-10-16T20:45:39;1.77;;;1.67;;
7013;SDS011;3547;50.774;12.918;2022-10-16T20:48:06;2.42;;;1.67;;
7013;SDS011;3547;50.774;12.918;2022-10-16T20:50:33;2.08;;;1.88;;
7013;SDS011;3547;50.774;12.918;2022-10-16T20:52:59;2.10;;;1.90;;
7013;SDS011;3547;50.774;12.918;2022-10-16T20:55:25;1.67;;;1.58;;
7013;SDS011;3547;50.774;12.918;2022-10-16T20:57:52;2.35;;;1.52;;
7013;SDS011;3547;50.774;12.918;2022-10-16T21:00:19;2.92;;;1.90;;
7013;SDS011;3547;50.774;12.918;2022-10-16T21:02:48;2.88;;;1.80;;
7013;SDS011;3547;50.774;12.918;2022-10-16T21:05:15;2.30;;;1.80;;
7013;SDS011;3547;50.774;12.918;2022-10-16T21:07:41;3.70;;;2.03;;
7013;SDS011;3547;50.774;12.918;2022-10-16T21:10:08;3.63;;;1.75;;
7013;SDS011;3547;50.774;12.918;2022-10-16T21:12:34;2.05;;;1.88;;
7013;SDS011;3547;50.774;12.918;2022-10-16T21:15:00;2.28;;;1.83;;
7013;SDS011;3547;50.774;12.918;2022-10-16T21:17:26;2.30;;;1.42;;
7013;SDS011;3547;50.774;12.918;2022-10-16T21:19:52;3.78;;;2.00;;
7013;SDS011;3547;50.774;12.918;2022-10-16T21:22:19;2.15;;;1.95;;
7013;SDS011;3547;50.774;12.918;2022-10-16T21:24:45;1.88;;;1.73;;
7013;SDS011;3547;50.774;12.918;2022-10-16T21:27:11;2.17;;;1.95;;
7013;SDS011;3547;50.774;12.918;2022-10-16T21:29:37;2.25;;;1.80;;
7013;SDS011;3547;50.774;12.918;2022-10-16T21:32:03;2.50;;;2.15;;
7013;SDS011;3547;50.774;12.918;2022-10-16T21:34:29;1.90;;;1.70;;
7013;SDS011;3547;50.774;12.918;2022-10-16T21:36:56;2.00;;;1.85;;
7013;SDS011;3547;50.774;12.918;2022-10-16T21:39:22;3.28;;;2.33;;
7013;SDS011;3547;50.774;12.918;2022-10-16T21:41:49;1.70;;;1.60;;
7013;SDS011;3547;50.774;12.918;2022-10-16T21:44:15;2.05;;;1.83;;
7013;SDS011;3547;50.774;12.918;2022-10-16T21:46:44;2.20;;;2.00;;
7013;SDS011;3547;50.774;12.918;2022-10-16T21:49:12;2.17;;;1.70;;
7013;SDS011;3547;50.774;12.918;2022-10-16T21:51:44;2.50;;;1.90;;
7013;SDS011;3547;50.774;12.918;2022-10-16T21:54:17;4.40;;;1.85;;
7013;SDS011;3547;50.774;12.918;2022-10-16T21:56:46;2.00;;;1.80;;
7013;SDS011;3547;50.774;12.918;2022-10-16T21:59:12;4.47;;;1.83;;
7013;SDS011;3547;50.774;12.918;2022-10-16T22:01:39;2.95;;;2.00;;
7013;SDS011;3547;50.774;12.918;2022-10-16T22:04:06;1.75;;;1.65;;
7013;SDS011;3547;50.774;12.918;2022-10-16T22:06:33;2.28;;;2.00;;
7013;SDS011;3547;50.774;12.918;2022-10-16T22:08:59;3.63;;;2.15;;
7013;SDS011;3547;50.774;12.918;2022-10-16T22:11:30;3.47;;;2.10;;
7013;SDS011;3547;50.774;12.918;2022-10-16T22:14:02;3.85;;;1.73;;
7013;SDS011;3547;50.774;12.918;2022-10-16T22:16:29;2.30;;;1.80;;
7013;SDS011;3547;50.774;12.918;2022-10-16T22:18:56;1.95;;;1.75;;
7013;SDS011;3547;50.774;12.918;2022-10-16T22:21:24;3.55;;;1.77;;
7013;SDS011;3547;50.774;12.918;2022-10-16T22:23:51;4.15;;;2.10;;
7013;SDS011;3547;50.774;12.918;2022-10-16T22:26:17;3.17;;;1.95;;
7013;SDS011;3547;50.774;12.918;2022-10-16T22:28:44;2.20;;;2.00;;
7013;SDS011;3547;50.774;12.918;2022-10-16T22:31:11;7.63;;;1.95;;
7013;SDS011;3547;50.774;12.918;2022-10-16T22:33:38;3.78;;;1.90;;
7013;SDS011;3547;50.774;12.918;2022-10-16T22:36:06;2.60;;;2.25;;
7013;SDS011;3547;50.774;12.918;2022-10-16T22:38:33;2.10;;;1.90;;
7013;SDS011;3547;50.774;12.918;2022-10-16T22:41:04;3.25;;;2.00;;
7013;SDS011;3547;50.774;12.918;2022-10-16T22:43:35;2.28;;;2.08;;
7013;SDS011;3547;50.774;12.918;2022-10-16T22:46:04;2.38;;;2.00;;
7013;SDS011;3547;50.774;12.918;2022-10-16T22:48:32;4.13;;;2.03;;
7013;SDS011;3547;50.774;12.918;2022-10-16T22:50:59;4.63;;;2.03;;
7013;SDS011;3547;50.774;12.918;2022-10-16T22:53:26;3.13;;;2.17;;
7013;SDS011;3547;50.774;12.918;2022-10-16T22:55:52;3.00;;;2.17;;
7013;SDS011;3547;50.774;12.918;2022-10-16T22:58:19;2.28;;;1.92;;
7013;SDS011;3547;50.774;12.918;2022-10-16T23:00:46;2.97;;;2.20;;
7013;SDS011;3547;50.774;12.918;2022-10-16T23:03:12;3.33;;;2.15;;
7013;SDS011;3547;50.774;12.918;2022-10-16T23:05:39;2.40;;;2.05;;
7013;SDS011;3547;50.774;12.918;2022-10-16T23:08:06;2.42;;;2.08;;
7013;SDS011;3547;50.774;12.918;2022-10-16T23:10:34;2.10;;;1.73;;
7013;SDS011;3547;50.774;12.918;2022-10-16T23:13:03;3.03;;;1.88;;
7013;SDS011;3547;50.774;12.918;2022-10-16T23:15:30;2.33;;;1.83;;
7013;SDS011;3547;50.774;12.918;2022-10-16T23:17:56;1.98;;;1.67;;
7013;SDS011;3547;50.774;12.918;2022-10-16T23:20:22;3.78;;;1.92;;
7013;SDS011;3547;50.774;12.918;2022-10-16T23:22:49;1.92;;;1.73;;
7013;SDS011;3547;50.774;12.918;2022-10-16T23:25:15;2.83;;;1.83;;
7013;SDS011;3547;50.774;12.918;2022-10-16T23:27:41;4.20;;;1.98;;
7013;SDS011;3547;50.774;12.918;2022-10-16T23:30:07;4.47;;;1.83;;
7013;SDS011;3547;50.774;12.918;2022-10-16T23:32:34;3.55;;;1.77;;
7013;SDS011;3547;50.774;12.918;2022-10-16T23:35:00;2.92;;;1.40;;
7013;SDS011;3547;50.774;12.918;2022-10-16T23:37:26;1.60;;;1.50;;
7013;SDS011;3547;50.774;12.918;2022-10-16T23:39:52;2.88;;;1.52;;
7013;SDS011;3547;50.774;12.918;2022-10-16T23:42:19;4.47;;;1.60;;
7013;SDS011;3547;50.774;12.918;2022-10-16T23:44:45;3.17;;;1.73;;
7013;SDS011;3547;50.774;12.918;2022-10-16T23:47:11;1.95;;;1.70;;
7013;SDS011;3547;50.774;12.918;2022-10-16T23:49:37;1.70;;;1.60;;
7013;SDS011;3547;50.774;12.918;2022-10-16T23:52:03;2.80;;;1.80;;
7013;SDS011;3547;50.774;12.918;2022-10-16T23:54:29;1.77;;;1.60;;
7013;SDS011;3547;50.774;12.918;2022-10-16T23:56:56;1.60;;;1.50;;
7013;SDS011;3547;50.774;12.918;2022-10-16T23:59:22;2.75;;;1.58;;
